Tigran Martirosyan — UBGF7 — position and weather

sailwx.info

Track history (hours):
 
Tides and Currents Weather Stations Pressure Air Temp Water Temp Dewpoint Dewpoint Depression Visibility Wind Speed Wind Dir Waves Ship Positions

Tigran Martirosyan

Last reported at 2018-Jan-10 06:06 UTC. Time now 2018-Jan-18 06:20 UTC.
Position N 45°17' E 036°27'.
Warning: this ship's position is 8 days out of date.

Length 100 m; draft 5.2 m.

Type: Tanker. MMSI: 273332610.

Date/timePositionNaut miles runAvg speedWind from/ knotsBaromVisibWave heightAir tempDewpointWater temp
2018-Jan-10 06:06N 45°17' E 036°27'  
2018-Jan-06 22:49N 44°36' E 037°36'3 8.7
2018-Jan-06 22:30N 44°35' E 037°40'4 8.2
2018-Jan-06 22:00N 44°37' E 037°45'4 8.3
2018-Jan-06 21:30N 44°39' E 037°50'3 6.9
2018-Jan-06 21:00N 44°43' E 037°50'0 0.5
2018-Jan-06 20:31N 44°43' E 037°51'0 0.0
2018-Jan-06 20:01N 44°43' E 037°51'0 0.0
2018-Jan-06 19:31N 44°43' E 037°51'0 0.0
2018-Jan-06 19:00N 44°43' E 037°51'0 0.0
2018-Jan-06 18:30N 44°43' E 037°51'0 0.0
2018-Jan-06 18:01N 44°43' E 037°51'0 0.0
2018-Jan-06 17:31N 44°43' E 037°51'0 0.0
2018-Jan-06 17:01N 44°43' E 037°51'0 0.0
2018-Jan-06 16:31N 44°43' E 037°51'0 0.0
2018-Jan-06 16:00N 44°43' E 037°51'0 0.0
2018-Jan-06 15:30N 44°43' E 037°51'0 0.0
2018-Jan-06 15:00N 44°43' E 037°51'0 0.0
2018-Jan-06 14:30N 44°43' E 037°51'0 0.0
2018-Jan-06 14:00N 44°43' E 037°51'0 0.0
2018-Jan-06 13:30N 44°43' E 037°51'0 0.0
2018-Jan-06 13:00N 44°43' E 037°51'0 0.0
2018-Jan-06 12:30N 44°43' E 037°51'0 0.0
2018-Jan-06 12:00N 44°43' E 037°51'0 0.0
2018-Jan-06 11:30N 44°43' E 037°51'0 0.0
2018-Jan-06 11:00N 44°43' E 037°51'2 3.9
2018-Jan-06 10:30N 44°41' E 037°50'4 7.4
2018-Jan-06 10:00N 44°38' E 037°47'5 9.3
2018-Jan-06 09:31N 44°36' E 037°41'  
Track history (hours):
 
Tides and Currents Weather Stations Pressure Air Temp Water Temp Dewpoint Dewpoint Depression Visibility Wind Speed Wind Dir Waves Ship Positions

Tigran Martirosyan

Last reported at 2018-Jan-10 06:06 UTC. Time now 2018-Jan-18 06:20 UTC.
Position N 45°17' E 036°27'.
Warning: this ship's position is 8 days out of date.

Length 100 m; draft 5.2 m.

Type: Tanker. MMSI: 273332610.

Date/timePositionNaut miles runAvg speedWind from/ knotsBaromVisibWave heightAir tempDewpointWater temp
2018-Jan-10 06:06N 45°17' E 036°27'  
2018-Jan-06 22:49N 44°36' E 037°36'3 8.7
2018-Jan-06 22:30N 44°35' E 037°40'4 8.2
2018-Jan-06 22:00N 44°37' E 037°45'4 8.3
2018-Jan-06 21:30N 44°39' E 037°50'3 6.9
2018-Jan-06 21:00N 44°43' E 037°50'0 0.5
2018-Jan-06 20:31N 44°43' E 037°51'0 0.0
2018-Jan-06 20:01N 44°43' E 037°51'0 0.0
2018-Jan-06 19:31N 44°43' E 037°51'0 0.0
2018-Jan-06 19:00N 44°43' E 037°51'0 0.0
2018-Jan-06 18:30N 44°43' E 037°51'0 0.0
2018-Jan-06 18:01N 44°43' E 037°51'0 0.0
2018-Jan-06 17:31N 44°43' E 037°51'0 0.0
2018-Jan-06 17:01N 44°43' E 037°51'0 0.0
2018-Jan-06 16:31N 44°43' E 037°51'0 0.0
2018-Jan-06 16:00N 44°43' E 037°51'0 0.0
2018-Jan-06 15:30N 44°43' E 037°51'0 0.0
2018-Jan-06 15:00N 44°43' E 037°51'0 0.0
2018-Jan-06 14:30N 44°43' E 037°51'0 0.0
2018-Jan-06 14:00N 44°43' E 037°51'0 0.0
2018-Jan-06 13:30N 44°43' E 037°51'0 0.0
2018-Jan-06 13:00N 44°43' E 037°51'0 0.0
2018-Jan-06 12:30N 44°43' E 037°51'0 0.0
2018-Jan-06 12:00N 44°43' E 037°51'0 0.0
2018-Jan-06 11:30N 44°43' E 037°51'0 0.0
2018-Jan-06 11:00N 44°43' E 037°51'2 3.9
2018-Jan-06 10:30N 44°41' E 037°50'4 7.4
2018-Jan-06 10:00N 44°38' E 037°47'5 9.3
2018-Jan-06 09:31N 44°36' E 037°41'  

Dump ship's entire track history